Aviation Digital Data Service (ADDS)

Output produced by METARs form (0729 UTC 23 August 2014)
found at http://www.aviationweather.gov/adds/metars/
 
KMIV 230654Z AUTO 03004KT 10SM CLR 18/17 A3000 RMK AO2 SLP159 T01830167
KMIV 230532Z 2306/2406 05005KT P6SM SCT025 BKN070 
     FM230900 06005KT P6SM BKN025 
     FM231100 06006KT 5SM BR OVC012 
     FM231400 08008KT P6SM OVC020 
     FM231800 09008KT P6SM SCT025 BKN050